Time;durP1;ratioP1;P1;durP2;ratioP2;P2;SDS_P1;SDS_P2;PMS_P1;PMS_P2;Temp;Humidity;BMP_temperature;BMP_pressure;BME280_temperature;BME280_humidity;BME280_pressure;Samples;Min_cycle;Max_cycle;Signal;HPM_P1;HPM_P2
2021/10/10 00:01:27;;;;;;;13.15;7.07;;;;;;;-149.78;100.00;50336.50;5058968;28;20064;-76
2021/10/10 00:03:54;;;;;;;13.80;6.85;;;;;;;-149.78;100.00;50314.97;5063404;28;20075;-72
2021/10/10 00:06:20;;;;;;;14.13;7.25;;;;;;;-149.78;100.00;50350.19;5063019;28;20078;-72
2021/10/10 00:08:46;;;;;;;15.88;7.03;;;;;;;-149.78;100.00;50324.75;5052244;28;20447;-72
2021/10/10 00:11:11;;;;;;;12.63;6.50;;;;;;;-149.78;100.00;50373.66;5068997;28;20361;-72
2021/10/10 00:13:37;;;;;;;12.57;6.60;;;;;;;-149.78;100.00;50326.72;5054291;28;20037;-72
2021/10/10 00:16:03;;;;;;;15.52;7.05;;;;;;;-149.78;100.00;50340.41;5052096;28;20037;-72
2021/10/10 00:18:29;;;;;;;11.45;6.05;;;;;;;-149.78;100.00;50346.28;5058758;28;20412;-72
2021/10/10 00:20:54;;;;;;;16.23;7.55;;;;;;;-149.78;100.00;50365.84;5045940;28;20132;-72
2021/10/10 00:23:20;;;;;;;14.18;6.75;;;;;;;-149.78;100.00;50342.38;5068270;28;20127;-76
2021/10/10 00:25:45;;;;;;;14.70;6.70;;;;;;;-149.78;100.00;50358.00;5063065;28;20044;-76
2021/10/10 00:28:11;;;;;;;9.57;5.60;;;;;;;-149.78;100.00;50322.81;5066344;28;20032;-76
2021/10/10 00:30:39;;;;;;;11.80;6.50;;;;;;;-149.78;100.00;50340.41;5067402;28;20040;-76
2021/10/10 00:33:05;;;;;;;10.85;6.05;;;;;;;-149.78;100.00;50307.16;5063624;28;20033;-76
2021/10/10 00:35:31;;;;;;;12.65;6.32;;;;;;;-149.78;100.00;50369.75;5055503;28;20032;-77
2021/10/10 00:37:56;;;;;;;10.18;5.80;;;;;;;-149.78;100.00;50322.81;5060886;28;20083;-76
2021/10/10 00:40:22;;;;;;;10.60;5.63;;;;;;;-149.78;100.00;50338.44;5070906;28;20041;-77
2021/10/10 00:42:48;;;;;;;9.65;5.75;;;;;;;-149.78;100.00;50303.25;5063059;28;20131;-76
2021/10/10 00:45:14;;;;;;;10.27;5.50;;;;;;;-149.78;100.00;50381.47;5054271;28;20044;-77
2021/10/10 00:47:42;;;;;;;8.77;3.30;;;;;;;-149.78;100.00;50342.38;5060714;28;20032;-76
2021/10/10 00:50:08;;;;;;;5.75;3.30;;;;;;;-149.78;100.00;50359.97;5054199;28;20426;-77
2021/10/10 00:52:39;;;;;;;4.97;2.55;;;;;;;-149.78;100.00;50311.06;5060602;28;20039;-76
2021/10/10 00:55:06;;;;;;;3.17;2.15;;;;;;;-149.78;100.00;50344.31;5070274;28;20120;-76
2021/10/10 00:57:32;;;;;;;4.70;1.80;;;;;;;-149.78;100.00;50322.81;5056715;28;20029;-77
2021/10/10 00:59:58;;;;;;;2.10;1.67;;;;;;;-149.78;100.00;50287.59;5070965;28;20103;-76
2021/10/10 01:02:25;;;;;;;3.50;1.80;;;;;;;-149.78;100.00;50338.44;5062867;28;20190;-76
2021/10/10 01:04:50;;;;;;;2.75;1.70;;;;;;;-149.78;100.00;50324.75;5062577;28;20041;-76
2021/10/10 01:07:18;;;;;;;1.60;1.27;;;;;;;-149.78;100.00;50346.28;5057948;28;20036;-77
2021/10/10 01:09:44;;;;;;;2.17;1.30;;;;;;;-149.78;100.00;50303.25;5053667;28;20033;-76
2021/10/10 01:12:10;;;;;;;1.75;1.25;;;;;;;-149.78;100.00;50354.09;5065735;28;20029;-76
2021/10/10 01:14:36;;;;;;;1.30;1.20;;;;;;;-149.78;100.00;50314.97;5071658;28;20400;-76
2021/10/10 01:17:03;;;;;;;1.35;1.17;;;;;;;-149.78;100.00;50314.97;5064044;28;20044;-76
2021/10/10 01:19:30;;;;;;;1.50;0.98;;;;;;;-149.78;100.00;50350.19;5054501;28;20063;-76
2021/10/10 01:21:57;;;;;;;0.95;0.85;;;;;;;-149.78;100.00;50334.53;5064380;28;20078;-76
2021/10/10 01:24:23;;;;;;;1.40;1.00;;;;;;;-149.78;100.00;50338.44;5072601;28;20040;-76
2021/10/10 01:26:49;;;;;;;1.25;1.15;;;;;;;-149.78;100.00;50354.09;5073336;28;20095;-76
2021/10/10 01:29:14;;;;;;;1.27;0.98;;;;;;;-149.78;100.00;50332.59;5072783;28;20094;-76
2021/10/10 01:31:40;;;;;;;1.45;0.90;;;;;;;-149.78;100.00;50303.25;5054945;28;20029;-77
2021/10/10 01:34:05;;;;;;;2.42;1.27;;;;;;;-149.78;100.00;50322.81;5054152;28;20032;-76
2021/10/10 01:36:34;;;;;;;1.48;1.20;;;;;;;-149.78;100.00;50350.19;5068728;28;20119;-76
2021/10/10 01:39:01;;;;;;;1.23;1.10;;;;;;;-149.78;100.00;50314.97;5062413;28;20197;-76
2021/10/10 01:41:27;;;;;;;1.40;1.30;;;;;;;-149.78;100.00;50336.50;5071658;28;20040;-76
2021/10/10 01:43:53;;;;;;;2.88;1.50;;;;;;;-149.78;100.00;50344.31;5072380;28;20109;-76
2021/10/10 01:46:19;;;;;;;1.83;1.42;;;;;;;-149.78;100.00;50358.00;5061783;28;20037;-76
2021/10/10 01:48:45;;;;;;;1.50;1.40;;;;;;;-149.78;100.00;50365.84;5057957;28;20099;-76
2021/10/10 01:51:12;;;;;;;1.30;1.20;;;;;;;-149.78;100.00;50299.34;5072610;28;20128;-76
2021/10/10 01:53:39;;;;;;;1.70;1.30;;;;;;;-149.78;100.00;50350.19;5063658;28;20047;-76
2021/10/10 01:56:05;;;;;;;1.50;1.10;;;;;;;-149.78;100.00;50338.44;5057390;28;20393;-76
2021/10/10 01:58:30;;;;;;;1.30;1.20;;;;;;;-149.78;100.00;50322.81;5054347;28;20033;-76
2021/10/10 02:00:57;;;;;;;2.90;1.10;;;;;;;-149.78;100.00;50389.31;5053226;28;20091;-76
2021/10/10 02:03:24;;;;;;;1.50;1.30;;;;;;;-149.78;100.00;50338.44;5061059;28;20090;-76
2021/10/10 02:05:50;;;;;;;2.03;1.20;;;;;;;-149.78;100.00;50318.91;5064980;28;20029;-76
2021/10/10 02:08:17;;;;;;;1.63;1.20;;;;;;;-149.78;100.00;50330.63;5035375;28;20124;-76
2021/10/10 02:10:43;;;;;;;1.20;1.10;;;;;;;-149.78;100.00;50338.44;5061672;28;20032;-76
2021/10/10 02:13:08;;;;;;;1.13;0.95;;;;;;;-149.78;100.00;50332.59;5062722;28;20094;-76
2021/10/10 02:15:34;;;;;;;1.98;1.17;;;;;;;-149.78;100.00;50348.22;5064738;28;20036;-76
2021/10/10 02:18:00;;;;;;;1.17;1.00;;;;;;;-149.78;100.00;50314.97;5065871;28;20043;-76
2021/10/10 02:20:26;;;;;;;1.25;1.08;;;;;;;-149.78;100.00;50334.53;5053230;28;20135;-76
2021/10/10 02:22:51;;;;;;;1.23;1.00;;;;;;;-149.78;100.00;50377.56;5065845;28;20068;-76
2021/10/10 02:25:17;;;;;;;2.35;1.30;;;;;;;-149.78;100.00;50314.97;5053588;28;20028;-76
2021/10/10 02:27:45;;;;;;;1.40;1.10;;;;;;;-149.78;100.00;50350.19;5055763;28;20061;-76
2021/10/10 02:30:11;;;;;;;1.20;1.10;;;;;;;-149.78;100.00;50338.44;5072801;28;20036;-75
2021/10/10 02:32:36;;;;;;;1.48;1.10;;;;;;;-149.78;100.00;50334.53;5059138;28;20083;-76
2021/10/10 02:35:02;;;;;;;1.08;1.05;;;;;;;-149.78;100.00;50314.97;5054601;28;20051;-76
2021/10/10 02:37:28;;;;;;;1.58;1.20;;;;;;;-149.78;100.00;50338.44;5063953;28;20040;-76
2021/10/10 02:39:54;;;;;;;1.25;1.10;;;;;;;-149.78;100.00;50346.28;5068733;28;20729;-76
2021/10/10 02:42:20;;;;;;;1.20;1.10;;;;;;;-149.78;100.00;50385.38;5061040;28;20081;-76
2021/10/10 02:44:46;;;;;;;1.25;1.05;;;;;;;-149.78;100.00;50314.97;5072033;28;20037;-77
2021/10/10 02:47:11;;;;;;;1.35;1.15;;;;;;;-149.78;100.00;50332.59;5065837;28;20560;-77
2021/10/10 02:49:37;;;;;;;1.52;1.42;;;;;;;-149.78;100.00;50340.41;5063766;28;20036;-76
2021/10/10 02:52:03;;;;;;;2.03;1.45;;;;;;;-149.78;100.00;50334.53;5056384;28;20055;-76
2021/10/10 02:54:29;;;;;;;2.80;1.70;;;;;;;-149.78;100.00;50358.00;5062024;28;20028;-76
2021/10/10 02:56:54;;;;;;;1.92;1.73;;;;;;;-149.78;100.00;50346.28;5062758;28;20036;-76
2021/10/10 02:59:20;;;;;;;2.20;1.73;;;;;;;-149.78;100.00;50330.63;5052193;28;20037;-76
2021/10/10 03:01:45;;;;;;;2.08;1.63;;;;;;;-149.78;100.00;50336.50;5044243;28;20053;-76
2021/10/10 03:04:11;;;;;;;2.15;1.63;;;;;;;-149.78;100.00;50338.44;5066949;28;20033;-76
2021/10/10 03:06:37;;;;;;;3.63;1.90;;;;;;;-149.78;100.00;50336.50;5072156;28;20028;-76
2021/10/10 03:09:02;;;;;;;2.08;1.60;;;;;;;-149.78;100.00;50330.63;5070119;28;20115;-76
2021/10/10 03:11:28;;;;;;;3.40;1.60;;;;;;;-149.78;100.00;50348.22;5064181;28;20425;-76
2021/10/10 03:13:54;;;;;;;2.65;1.80;;;;;;;-149.78;100.00;50303.25;5053137;28;20033;-76
2021/10/10 03:16:19;;;;;;;1.90;1.55;;;;;;;-149.78;100.00;50332.59;5053545;28;20102;-76
2021/10/10 03:18:45;;;;;;;3.08;2.00;;;;;;;-149.78;100.00;50342.38;5065834;28;20028;-77
2021/10/10 03:21:10;;;;;;;2.25;1.90;;;;;;;-149.78;100.00;50334.53;5063908;28;20066;-76
2021/10/10 03:23:36;;;;;;;2.85;1.70;;;;;;;-149.78;100.00;50332.59;5066891;28;20532;-76
2021/10/10 03:26:01;;;;;;;2.17;1.70;;;;;;;-149.78;100.00;50326.72;5059880;28;20032;-75
2021/10/10 03:28:27;;;;;;;1.92;1.80;;;;;;;-149.78;100.00;50348.22;5065838;28;20090;-76
2021/10/10 03:30:53;;;;;;;3.00;1.90;;;;;;;-149.78;100.00;50358.00;5053417;28;20495;-76
2021/10/10 03:33:20;;;;;;;2.38;1.75;;;;;;;-149.78;100.00;50324.75;5067110;28;20417;-76
2021/10/10 03:35:46;;;;;;;2.70;1.80;;;;;;;-149.78;100.00;50330.63;5052788;28;20120;-76
2021/10/10 03:38:11;;;;;;;2.25;1.70;;;;;;;-149.78;100.00;50299.34;5061825;28;20040;-76
2021/10/10 03:40:37;;;;;;;1.80;1.48;;;;;;;-149.78;100.00;50334.53;5066878;28;20037;-76
2021/10/10 03:43:03;;;;;;;2.75;1.65;;;;;;;-149.78;100.00;50338.44;5058528;28;20048;-76
2021/10/10 03:45:29;;;;;;;2.10;1.60;;;;;;;-149.78;100.00;50338.44;5062158;28;20040;-76
2021/10/10 03:47:55;;;;;;;1.80;1.50;;;;;;;-149.78;100.00;50322.81;5056949;28;20381;-76
2021/10/10 03:50:21;;;;;;;1.98;1.77;;;;;;;-149.78;100.00;50287.59;5059631;28;20365;-76
2021/10/10 03:52:46;;;;;;;1.67;1.58;;;;;;;-149.78;100.00;50352.16;5057470;28;20044;-76
2021/10/10 03:57:40;;;;;;;1.60;1.48;;;;;;;-149.78;100.00;50363.88;5070312;28;20036;-76
2021/10/10 04:00:10;;;;;;;2.53;1.55;;;;;;;-149.78;100.00;50342.38;5056430;28;20037;-76
2021/10/10 04:02:36;;;;;;;2.38;1.50;;;;;;;-149.78;100.00;50342.38;5056225;28;20591;-76
2021/10/10 04:05:03;;;;;;;1.95;1.30;;;;;;;-149.78;100.00;50334.53;5056153;28;20075;-76
2021/10/10 04:07:30;;;;;;;1.80;1.30;;;;;;;-149.78;100.00;50346.28;5067794;28;20058;-76
2021/10/10 04:09:55;;;;;;;1.67;1.40;;;;;;;-149.78;100.00;50369.75;5067301;28;20490;-76
2021/10/10 04:12:21;;;;;;;4.15;1.27;;;;;;;-149.78;100.00;50373.66;5067765;28;20463;-76
2021/10/10 04:14:47;;;;;;;2.58;1.30;;;;;;;-149.78;100.00;50342.38;5062542;28;20033;-76
2021/10/10 04:17:13;;;;;;;3.85;1.45;;;;;;;-149.78;100.00;50330.63;5070694;28;20036;-76
2021/10/10 04:19:38;;;;;;;1.35;1.25;;;;;;;-149.78;100.00;50342.38;5054970;28;20060;-75
2021/10/10 04:22:05;;;;;;;2.22;1.20;;;;;;;-149.78;100.00;50365.84;5054317;28;20124;-76
2021/10/10 04:24:30;;;;;;;2.83;1.42;;;;;;;-149.78;100.00;50367.78;5060673;28;20460;-76
2021/10/10 04:26:56;;;;;;;1.90;1.30;;;;;;;-149.78;100.00;50354.09;5058590;28;20039;-76
2021/10/10 04:29:22;;;;;;;9.80;2.30;;;;;;;-149.78;100.00;50379.53;5064737;28;20476;-76
2021/10/10 04:31:48;;;;;;;1.90;1.58;;;;;;;-149.78;100.00;50338.44;5064201;28;20127;-76
2021/10/10 04:34:14;;;;;;;5.43;1.38;;;;;;;-149.78;100.00;50358.00;5067194;28;20074;-76
2021/10/10 04:36:40;;;;;;;1.40;1.20;;;;;;;-149.78;100.00;50338.44;5072987;28;20040;-76
2021/10/10 04:39:06;;;;;;;2.17;1.50;;;;;;;-149.78;100.00;50367.78;5058827;28;20037;-76
2021/10/10 04:41:31;;;;;;;2.50;1.40;;;;;;;-149.78;100.00;50373.66;5068863;28;20033;-76
2021/10/10 04:43:57;;;;;;;1.10;1.00;;;;;;;-149.78;100.00;50385.38;5065160;28;20447;-76
2021/10/10 04:46:23;;;;;;;2.72;1.10;;;;;;;-149.78;100.00;50373.66;5069341;28;20060;-76
2021/10/10 04:48:48;;;;;;;2.40;1.25;;;;;;;-149.78;100.00;50377.56;5061514;28;20364;-76
2021/10/10 04:51:14;;;;;;;2.17;1.50;;;;;;;-149.78;100.00;50377.56;5074566;28;20383;-76
2021/10/10 04:53:40;;;;;;;2.45;1.30;;;;;;;-149.78;100.00;50358.00;5071601;28;20043;-76
2021/10/10 04:56:05;;;;;;;1.35;1.20;;;;;;;-149.78;100.00;50377.56;5054218;28;20035;-75
2021/10/10 04:58:31;;;;;;;4.93;1.35;;;;;;;-149.78;100.00;50389.31;5069609;28;20480;-76
2021/10/10 05:00:57;;;;;;;1.65;1.27;;;;;;;-149.78;100.00;50358.00;5069896;28;20039;-76
2021/10/10 05:03:26;;;;;;;2.05;1.38;;;;;;;-149.78;100.00;50377.56;5067826;28;20032;-75
2021/10/10 05:05:52;;;;;;;1.15;1.05;;;;;;;-149.78;100.00;50391.25;5075512;28;20055;-76
2021/10/10 05:08:19;;;;;;;1.38;1.05;;;;;;;-149.78;100.00;50363.88;5068004;28;20036;-75
2021/10/10 05:10:44;;;;;;;1.52;1.20;;;;;;;-149.78;100.00;50365.84;5057675;28;20032;-76
2021/10/10 05:13:10;;;;;;;1.75;1.25;;;;;;;-149.78;100.00;50389.31;5064299;28;20062;-76
2021/10/10 05:15:36;;;;;;;2.15;1.50;;;;;;;-149.78;100.00;50365.84;5065913;28;20029;-76
2021/10/10 05:18:02;;;;;;;4.93;2.50;;;;;;;-149.78;100.00;50373.66;5067513;28;20503;-71
2021/10/10 05:20:29;;;;;;;4.18;2.20;;;;;;;-149.78;100.00;50377.56;5066164;28;20044;-72
2021/10/10 05:22:55;;;;;;;3.30;2.40;;;;;;;-149.78;100.00;50361.91;5065269;28;20036;-72
2021/10/10 05:25:20;;;;;;;3.65;2.47;;;;;;;-149.78;100.00;50391.25;5058659;28;20024;-72
2021/10/10 05:27:46;;;;;;;4.78;2.78;;;;;;;-149.78;100.00;50397.13;5053250;28;20037;-72
2021/10/10 05:30:12;;;;;;;4.07;2.70;;;;;;;-149.78;100.00;50365.84;5054310;28;20040;-72
2021/10/10 05:32:38;;;;;;;3.28;2.50;;;;;;;-149.78;100.00;50381.47;5068338;28;20040;-72
2021/10/10 05:35:04;;;;;;;4.43;2.53;;;;;;;-149.78;100.00;50359.97;5071815;28;20044;-72
2021/10/10 05:37:30;;;;;;;4.20;2.65;;;;;;;-149.78;100.00;50385.38;5055658;28;20492;-72
2021/10/10 05:39:56;;;;;;;4.65;2.50;;;;;;;-149.78;100.00;50377.56;5061954;28;20045;-72
2021/10/10 05:42:21;;;;;;;3.97;2.60;;;;;;;-149.78;100.00;50367.78;5055078;28;20044;-72
2021/10/10 05:44:48;;;;;;;3.63;2.28;;;;;;;-149.78;100.00;50393.22;5062522;28;20059;-72
2021/10/10 05:47:15;;;;;;;3.22;2.10;;;;;;;-149.78;100.00;50385.38;5062329;28;20091;-72
2021/10/10 05:49:41;;;;;;;5.18;2.65;;;;;;;-149.78;100.00;50350.19;5057437;28;20029;-71
2021/10/10 05:52:08;;;;;;;3.88;2.58;;;;;;;-149.78;100.00;50346.28;5058224;28;20099;-72
2021/10/10 05:54:36;;;;;;;3.88;2.60;;;;;;;-149.78;100.00;50397.13;5060310;28;20045;-72
2021/10/10 05:57:06;;;;;;;10.27;3.08;;;;;;;-149.78;100.00;50416.69;5058146;28;20116;-72
2021/10/10 05:59:34;;;;;;;4.63;2.70;;;;;;;-149.78;100.00;50381.47;5057743;28;20061;-72
2021/10/10 06:02:02;;;;;;;4.10;2.85;;;;;;;-149.78;100.00;50428.41;5057256;28;20029;-72
2021/10/10 06:04:28;;;;;;;3.78;2.67;;;;;;;-149.78;100.00;50383.44;5055977;28;20098;-72
2021/10/10 06:06:54;;;;;;;5.05;2.78;;;;;;;-149.78;100.00;50408.84;5055444;28;20071;-72
2021/10/10 06:09:19;;;;;;;5.75;3.10;;;;;;;-149.78;100.00;50381.47;5060948;28;20029;-72
2021/10/10 06:11:45;;;;;;;7.03;3.30;;;;;;;-149.78;100.00;50410.81;5055895;28;20402;-72
2021/10/10 06:14:12;;;;;;;4.15;2.85;;;;;;;-149.78;100.00;50422.56;5056437;28;20028;-72
2021/10/10 06:16:38;;;;;;;7.05;3.10;;;;;;;-149.78;100.00;50404.94;5060251;28;20033;-72
2021/10/10 06:19:04;;;;;;;4.47;2.83;;;;;;;-149.78;100.00;50414.72;5061078;28;20033;-72
2021/10/10 06:21:31;;;;;;;4.78;2.92;;;;;;;-149.78;100.00;50412.78;5061434;28;20041;-72
2021/10/10 06:23:57;;;;;;;6.20;3.20;;;;;;;-149.78;100.00;50412.78;5060718;28;20035;-72
2021/10/10 06:26:23;;;;;;;7.55;3.15;;;;;;;-149.78;100.00;50408.84;5065222;28;20025;-72
2021/10/10 06:28:49;;;;;;;5.68;3.25;;;;;;;-149.78;100.00;50389.31;5066659;28;20029;-72
2021/10/10 06:31:16;;;;;;;4.70;2.90;;;;;;;-149.78;100.00;50416.69;5055024;28;20386;-72
2021/10/10 06:33:41;;;;;;;5.07;3.15;;;;;;;-149.78;100.00;50432.31;5052356;28;20127;-72
2021/10/10 06:36:07;;;;;;;7.78;3.47;;;;;;;-149.78;100.00;50406.91;5060936;28;20449;-71
2021/10/10 06:38:34;;;;;;;6.68;3.65;;;;;;;-149.78;100.00;50444.06;5060010;28;20028;-72
2021/10/10 06:40:59;;;;;;;7.00;2.75;;;;;;;-149.78;100.00;50424.50;5063166;28;20376;-71
2021/10/10 06:43:25;;;;;;;5.97;3.50;;;;;;;-149.78;100.00;50420.59;5060969;28;20628;-72
2021/10/10 06:45:51;;;;;;;5.65;3.38;;;;;;;-149.78;100.00;50404.94;5064045;28;20036;-72
2021/10/10 06:48:17;;;;;;;5.78;3.10;;;;;;;-149.78;100.00;50420.59;5060180;28;20035;-72
2021/10/10 06:50:43;;;;;;;5.53;2.95;;;;;;;-149.78;100.00;50401.03;5064169;28;20040;-72
2021/10/10 06:53:09;;;;;;;7.88;3.00;;;;;;;-149.78;100.00;50412.78;5061770;28;20504;-73
2021/10/10 06:55:35;;;;;;;5.55;2.88;;;;;;;-149.78;100.00;50399.09;5061546;28;20079;-73
2021/10/10 06:58:00;;;;;;;3.88;2.45;;;;;;;-149.78;100.00;50428.41;5059347;28;20041;-75
2021/10/10 07:00:26;;;;;;;6.05;3.00;;;;;;;-149.78;100.00;50416.69;5062712;28;20067;-77
2021/10/10 07:02:51;;;;;;;2.78;2.13;;;;;;;-149.78;100.00;50403.00;5059934;28;20480;-77
2021/10/10 07:05:18;;;;;;;3.83;2.53;;;;;;;-149.78;100.00;50404.94;5063432;28;20044;-73
2021/10/10 07:07:44;;;;;;;5.93;2.45;;;;;;;-149.78;100.00;50404.94;5056338;28;20029;-75
2021/10/10 07:10:11;;;;;;;4.32;2.20;;;;;;;-149.78;100.00;50426.47;5060439;28;20041;-73
2021/10/10 07:12:37;;;;;;;4.97;2.40;;;;;;;-149.78;100.00;50389.31;5063628;28;20032;-74
2021/10/10 07:15:07;;;;;;;3.78;2.38;;;;;;;-149.78;100.00;50393.22;5046028;28;20044;-74
2021/10/10 07:17:32;;;;;;;3.80;2.30;;;;;;;-149.78;100.00;50412.78;5056800;28;20390;-74
2021/10/10 07:20:24;;;;;;;4.85;2.42;;;;;;;-149.78;100.00;50404.94;5063780;28;20067;-75
2021/10/10 07:22:46;;;;;;;3.95;2.15;;;;;;;-149.78;100.00;50401.03;5056178;28;20051;-74
2021/10/10 07:25:12;;;;;;;2.60;1.85;;;;;;;-149.78;100.00;50418.63;5058263;28;20112;-78
2021/10/10 07:27:40;;;;;;;3.75;2.25;;;;;;;-149.78;100.00;50426.47;5061802;28;20119;-74
2021/10/10 07:30:13;;;;;;;3.47;2.20;;;;;;;-149.78;100.00;50385.38;5056739;28;20532;-76
2021/10/10 07:32:41;;;;;;;5.38;2.63;;;;;;;-149.78;100.00;50424.50;5062162;28;20453;-77
2021/10/10 07:35:08;;;;;;;5.65;2.33;;;;;;;-149.78;100.00;50426.47;5058567;28;20380;-76
2021/10/10 07:37:34;;;;;;;4.55;2.13;;;;;;;-149.78;100.00;50365.84;5063907;28;20552;-76
2021/10/10 07:40:01;;;;;;;9.15;2.70;;;;;;;-149.78;100.00;50401.03;5066708;28;21052;-76
2021/10/10 07:42:27;;;;;;;3.90;2.33;;;;;;;-149.78;100.00;50404.94;5057011;28;20460;-76
2021/10/10 07:44:54;;;;;;;7.15;2.30;;;;;;;-149.78;100.00;50432.31;5060571;28;20089;-76
2021/10/10 07:49:49;;;;;;;3.83;2.38;;;;;;;-149.78;100.00;50346.28;5061578;28;20813;-76
2021/10/10 07:52:16;;;;;;;4.05;2.25;;;;;;;-149.78;100.00;50330.63;5061652;28;20029;-76
2021/10/10 07:54:43;;;;;;;4.22;1.95;;;;;;;-149.78;100.00;50303.25;5061625;28;20468;-77
2021/10/10 07:57:08;;;;;;;3.38;1.70;;;;;;;-149.78;100.00;50268.03;5057256;28;20121;-76
2021/10/10 07:59:34;;;;;;;2.88;1.45;;;;;;;-149.78;100.00;50185.91;5061183;28;20499;-76
2021/10/10 08:02:00;;;;;;;2.40;1.55;;;;;;;-149.78;90.50;50197.66;5058629;28;20033;-76
2021/10/10 08:04:26;;;;;;;1.90;1.30;;;;;;;-149.78;71.10;50158.53;5053867;28;20033;-70
2021/10/10 08:06:52;;;;;;;3.60;1.30;;;;;;;-149.78;62.85;50135.06;5067750;28;20182;-75
2021/10/10 08:09:18;;;;;;;2.35;1.40;;;;;;;-149.78;60.23;50127.25;5063048;28;20047;-75
2021/10/10 08:11:44;;;;;;;1.60;1.25;;;;;;;-149.78;56.72;50107.69;5059913;28;20037;-75
2021/10/10 08:14:13;;;;;;;2.80;1.17;;;;;;;-149.78;55.98;50138.97;5059630;28;20033;-75
2021/10/10 08:16:40;;;;;;;2.20;1.13;;;;;;;-149.78;53.32;50088.13;5061809;28;20028;-75
2021/10/10 08:19:06;;;;;;;2.33;1.50;;;;;;;-149.78;53.98;50115.50;5053076;28;20072;-75
2021/10/10 08:21:32;;;;;;;3.35;1.50;;;;;;;-149.78;53.43;50107.69;5053165;28;20170;-75
2021/10/10 08:24:00;;;;;;;2.70;1.05;;;;;;;-149.78;51.94;50115.50;5052757;28;20021;-76
2021/10/10 08:26:26;;;;;;;1.83;1.08;;;;;;;-149.78;50.34;50084.22;5051810;28;20029;-76
2021/10/10 08:28:52;;;;;;;2.40;1.27;;;;;;;-149.78;50.02;50072.50;5054229;28;20039;-76
2021/10/10 08:31:17;;;;;;;2.55;1.45;;;;;;;-149.78;50.06;50094.00;5054565;28;20040;-75
2021/10/10 08:33:43;;;;;;;2.15;1.30;;;;;;;-149.78;49.09;50062.72;5051906;28;20044;-75
2021/10/10 08:36:08;;;;;;;3.65;1.27;;;;;;;-149.78;48.26;50052.94;5046724;28;20036;-75
2021/10/10 08:38:35;;;;;;;2.10;1.08;;;;;;;-149.78;46.03;50013.81;5062857;28;20032;-75
2021/10/10 08:41:02;;;;;;;2.72;1.05;;;;;;;-149.78;45.69;50029.47;5059077;28;20033;-75
2021/10/10 08:43:33;;;;;;;1.95;1.13;;;;;;;-149.78;44.65;50045.09;5065732;28;20032;-75
2021/10/10 08:46:01;;;;;;;2.50;1.10;;;;;;;-149.78;43.76;50006.00;5059074;28;20029;-76
2021/10/10 08:48:28;;;;;;;2.42;1.20;;;;;;;-149.78;43.41;49994.25;5069240;28;20107;-76
2021/10/10 08:50:55;;;;;;;3.08;1.40;;;;;;;-149.78;43.11;49990.34;5072393;28;20086;-76
2021/10/10 08:53:22;;;;;;;1.45;1.10;;;;;;;-149.78;42.40;50006.00;5066594;28;20040;-76
2021/10/10 08:55:50;;;;;;;3.17;1.20;;;;;;;-149.78;42.58;49970.78;5068722;28;20514;-76
2021/10/10 08:58:19;;;;;;;2.40;1.25;;;;;;;-149.78;46.33;50072.50;5060844;28;20033;-76
2021/10/10 09:00:48;;;;;;;4.18;1.42;;;;;;;-149.78;44.79;50027.50;5064627;28;20115;-76
2021/10/10 09:03:16;;;;;;;2.10;1.38;;;;;;;-149.78;43.92;50029.47;5056717;28;20037;-75
2021/10/10 09:05:42;;;;;;;3.60;1.63;;;;;;;-149.78;43.42;50007.94;5061019;28;20102;-75
2021/10/10 09:08:08;;;;;;;2.75;1.60;;;;;;;-149.78;44.44;50052.94;5070856;28;20119;-76
2021/10/10 09:10:34;;;;;;;2.05;1.50;;;;;;;-149.78;43.90;50017.72;5067527;28;20386;-76
2021/10/10 09:13:14;;;;;;;4.25;1.38;;;;;;;-149.78;42.75;49990.34;5062727;28;20032;-75
2021/10/10 09:15:43;;;;;;;2.92;1.70;;;;;;;-149.78;44.57;50084.22;5064247;28;20423;-76
2021/10/10 09:18:10;;;;;;;3.22;1.48;;;;;;;-149.78;44.67;50013.81;5067554;28;20029;-75
2021/10/10 09:20:35;;;;;;;2.83;1.48;;;;;;;-149.78;44.23;50049.03;5058922;28;20048;-76
2021/10/10 09:23:03;;;;;;;4.50;1.45;;;;;;;-149.78;42.44;50025.56;5057204;28;20034;-75
2021/10/10 09:25:29;;;;;;;2.58;1.58;;;;;;;-149.78;41.79;49998.19;5067547;28;20050;-76
2021/10/10 09:28:00;;;;;;;3.13;1.50;;;;;;;-149.78;41.13;49931.69;5059083;28;20040;-76
2021/10/10 09:30:27;;;;;;;3.75;1.45;;;;;;;-149.78;41.23;49966.88;5054130;28;20385;-75
2021/10/10 09:32:56;;;;;;;3.40;1.30;;;;;;;-149.78;40.34;50006.00;5058882;28;20147;-76
2021/10/10 09:35:28;;;;;;;3.05;1.52;;;;;;;-149.78;40.21;49966.88;5072278;28;20059;-76
2021/10/10 09:38:13;;;;;;;3.17;1.30;;;;;;;-149.78;39.36;49982.53;5052966;28;20388;-76
2021/10/10 09:40:48;;;;;;;2.63;1.27;;;;;;;-149.78;42.03;49984.50;5043879;28;20388;-75
2021/10/10 09:43:14;;;;;;;3.47;1.65;;;;;;;-149.78;41.98;49982.53;5066827;28;20123;-76
2021/10/10 09:45:42;;;;;;;4.80;1.67;;;;;;;-149.78;41.73;50037.28;5062529;28;20402;-76
2021/10/10 09:48:08;;;;;;;2.13;1.60;;;;;;;-149.78;41.22;49996.22;5058390;28;20029;-77
2021/10/10 09:50:36;;;;;;;3.42;1.73;;;;;;;-149.78;39.24;49962.97;5063790;28;20468;-75
2021/10/10 09:53:06;;;;;;;4.95;1.73;;;;;;;-149.78;38.38;49923.88;5059537;28;20036;-76
2021/10/10 09:55:34;;;;;;;4.07;1.80;;;;;;;-149.78;36.65;49951.25;5060355;28;20120;-76
2021/10/10 09:58:00;;;;;;;8.27;3.50;;;;;;;-149.78;37.32;49994.25;5059392;28;20040;-76
2021/10/10 10:00:30;;;;;;;20.10;10.68;;;;;;;-149.78;36.79;49949.28;5063002;28;20028;-76
2021/10/10 10:03:10;;;;;;;27.85;14.48;;;;;;;-149.78;36.48;49970.78;5067903;28;20532;-75
2021/10/10 10:05:38;;;;;;;13.18;6.60;;;;;;;-149.78;38.17;49992.31;5069789;28;20179;-76
2021/10/10 10:08:05;;;;;;;37.92;21.23;;;;;;;-149.78;40.01;50021.63;5060175;28;20059;-76
2021/10/10 10:10:33;;;;;;;24.38;12.85;;;;;;;-149.78;39.41;49998.19;5054694;28;20033;-75
2021/10/10 10:13:01;;;;;;;20.65;11.00;;;;;;;-149.78;39.02;49978.63;5062291;28;20128;-76
2021/10/10 10:15:30;;;;;;;18.20;10.45;;;;;;;-149.78;38.24;49970.78;5060917;28;20048;-75
2021/10/10 10:17:57;;;;;;;13.45;8.00;;;;;;;-149.78;37.82;49962.97;5062684;28;20040;-76
2021/10/10 10:20:24;;;;;;;10.32;5.60;;;;;;;-149.78;36.87;49978.63;5060606;28;20040;-76
2021/10/10 10:22:55;;;;;;;7.72;4.35;;;;;;;-149.78;39.15;50021.63;5059752;28;20069;-75
2021/10/10 10:25:22;;;;;;;9.23;3.47;;;;;;;-149.78;40.05;50068.56;5048323;28;20060;-76
2021/10/10 10:27:49;;;;;;;7.20;4.38;;;;;;;-149.78;40.21;50031.41;5056509;28;20033;-75
2021/10/10 10:30:18;;;;;;;15.90;6.28;;;;;;;-149.78;41.36;50023.59;5064688;28;20033;-75
2021/10/10 10:32:44;;;;;;;5.88;3.15;;;;;;;-149.78;40.23;50033.38;5038049;28;20182;-73
2021/10/10 10:35:13;;;;;;;7.90;3.17;;;;;;;-149.78;40.06;50017.72;5053008;28;20032;-73
2021/10/10 10:37:42;;;;;;;16.33;9.00;;;;;;;-149.78;39.56;49976.66;5059973;28;20036;-73
2021/10/10 10:40:14;;;;;;;22.63;12.68;;;;;;;-149.78;40.19;49980.56;5056602;28;20029;-73
2021/10/10 10:42:41;;;;;;;39.42;18.27;;;;;;;-149.78;39.99;50017.72;5056270;28;20033;-73
2021/10/10 10:45:25;;;;;;;36.25;20.20;;;;;;;-149.78;41.32;50025.56;5060268;28;20045;-71
2021/10/10 10:47:53;;;;;;;39.95;21.83;;;;;;;-149.78;43.89;50094.00;5060853;28;20116;-73
2021/10/10 10:50:23;;;;;;;43.00;22.60;;;;;;;-149.78;46.25;50099.88;5059075;28;20047;-73
2021/10/10 10:53:13;;;;;;;30.48;15.30;;;;;;;-149.78;48.01;50050.97;5079748;28;20054;-73
2021/10/10 10:55:53;;;;;;;18.92;9.27;;;;;;;-149.78;47.42;50142.88;5058291;28;20037;-73
2021/10/10 10:58:19;;;;;;;11.70;6.00;;;;;;;-149.78;46.26;50097.91;5056493;28;20068;-73
2021/10/10 11:00:50;;;;;;;11.07;5.75;;;;;;;-149.78;44.75;50072.50;5027278;28;20052;-73
2021/10/10 11:03:22;;;;;;;6.38;3.50;;;;;;;-149.78;46.32;50086.19;5059784;28;20048;-73
2021/10/10 11:06:13;;;;;;;6.90;2.50;;;;;;;-149.78;47.72;50088.13;5059277;28;20094;-73
2021/10/10 11:08:41;;;;;;;7.93;3.00;;;;;;;-149.78;45.85;50064.66;5057407;28;20079;-73
2021/10/10 11:11:17;;;;;;;3.58;1.80;;;;;;;-149.78;44.38;50103.78;5067341;28;20033;-73
2021/10/10 11:14:02;;;;;;;5.13;2.45;;;;;;;-149.78;43.65;50080.31;5057518;28;20056;-73